Anderson, Indiana
Current Conditions -  °F | °C
As of 12:53 AM on Wednesday 28 Jan 2015 (Local Time) from KMIE Reporting Station
Haze Haze  
Wind Chill: 12°   Ceiling: Unl
Heat Index: 12°   Visibility: 4mi
Dew Point:   Wind: 0mph
Humidity: 80%   Direction: NA
Pressure: 30.24"   Gusts: NA
Location:  40.1°N, 85.68°W
Report Text: KMIE 280553Z AUTO 00000KT 4SM HZ CLR M11/M14 A3024 RMK AO2 SLP251 I1000 I6001 T11111139 11067 21117 53002
Loading
Personal Weather Stations






























Interactive Weather Map New forecast layout! Learn more

10-Day Weather Forecast

Advertisements
Track Severe Weather on mobile